createdAt,value
2022-10-26T00:01:04.671Z,53.97
2022-10-26T00:03:34.012Z,54.32
2022-10-26T00:06:08.569Z,54.10
2022-10-26T00:08:36.428Z,54.51
2022-10-26T00:11:04.005Z,54.07
2022-10-26T00:13:31.616Z,54.11
2022-10-26T00:18:27.761Z,53.89
2022-10-26T00:20:56.647Z,54.45
2022-10-26T00:23:24.173Z,55.21
2022-10-26T00:25:57.890Z,55.36
2022-10-26T00:28:25.595Z,55.41
2022-10-26T00:30:53.175Z,55.41
2022-10-26T00:33:20.915Z,55.46
2022-10-26T00:35:49.020Z,55.47
2022-10-26T00:38:17.913Z,55.45
2022-10-26T00:40:45.489Z,55.52
2022-10-26T00:43:16.858Z,55.60
2022-10-26T00:45:44.426Z,55.59
2022-10-26T00:48:20.634Z,55.52
2022-10-26T00:50:48.236Z,55.55
2022-10-26T00:53:15.778Z,55.53
2022-10-26T00:55:46.160Z,55.51
2022-10-26T00:58:13.748Z,55.64
2022-10-26T01:00:41.653Z,55.71
2022-10-26T01:03:09.956Z,55.69
2022-10-26T01:05:38.881Z,55.82
2022-10-26T01:08:06.540Z,55.82
2022-10-26T01:10:34.092Z,55.85
2022-10-26T01:13:03.022Z,55.89
2022-10-26T01:15:32.603Z,55.94
2022-10-26T01:18:03.329Z,56.01
2022-10-26T01:20:48.187Z,55.84
2022-10-26T01:23:18.897Z,56.05
2022-10-26T01:26:07.921Z,55.95
2022-10-26T01:28:45.788Z,55.91
2022-10-26T01:31:16.522Z,55.98
2022-10-26T01:33:45.676Z,56.16
2022-10-26T01:36:14.033Z,56.16
2022-10-26T01:38:45.257Z,56.26
2022-10-26T01:41:14.337Z,55.99
2022-10-26T01:43:43.336Z,56.11
2022-10-26T01:46:10.962Z,56.08
2022-10-26T01:48:39.853Z,56.26
2022-10-26T01:51:07.599Z,56.25
2022-10-26T01:53:35.157Z,56.15
2022-10-26T01:56:02.729Z,56.28
2022-10-26T01:58:43.085Z,56.28
2022-10-26T02:01:17.870Z,55.91
2022-10-26T02:03:47.449Z,56.14
2022-10-26T02:06:18.086Z,56.28
2022-10-26T02:08:57.784Z,56.15
2022-10-26T02:11:30.600Z,55.61
2022-10-26T02:14:01.929Z,55.83
2022-10-26T02:16:31.476Z,56.03
2022-10-26T02:19:02.382Z,56.04
2022-10-26T02:21:32.116Z,56.28
2022-10-26T02:23:59.743Z,55.97
2022-10-26T02:26:29.054Z,56.11
2022-10-26T02:28:57.988Z,56.10
2022-10-26T02:31:25.538Z,56.19
2022-10-26T02:33:53.104Z,56.17
2022-10-26T02:36:23.766Z,56.25
2022-10-26T02:38:51.438Z,56.31
2022-10-26T02:41:19.039Z,55.88
2022-10-26T02:43:49.001Z,55.92
2022-10-26T02:46:17.194Z,56.20
2022-10-26T02:48:44.773Z,56.32
2022-10-26T02:51:13.353Z,55.97
2022-10-26T02:53:44.028Z,56.01
2022-10-26T02:56:16.368Z,56.15
2022-10-26T02:58:52.156Z,56.28
2022-10-26T03:01:19.711Z,56.34
2022-10-26T03:03:47.395Z,56.18
2022-10-26T03:06:21.863Z,56.26
2022-10-26T03:08:50.838Z,56.53
2022-10-26T03:11:18.447Z,56.43
2022-10-26T03:13:46.078Z,56.42
2022-10-26T03:16:13.842Z,56.55
2022-10-26T03:18:41.409Z,56.54
2022-10-26T03:21:08.961Z,56.35
2022-10-26T03:23:36.565Z,56.23
2022-10-26T03:26:05.593Z,56.54
2022-10-26T03:28:33.279Z,56.14
2022-10-26T03:31:00.811Z,56.31
2022-10-26T03:33:28.453Z,56.39
2022-10-26T03:35:57.062Z,56.69
2022-10-26T03:38:24.876Z,56.01
2022-10-26T03:40:52.497Z,56.53
2022-10-26T03:43:21.445Z,56.17
2022-10-26T03:45:49.001Z,56.52
2022-10-26T03:48:16.535Z,56.42
2022-10-26T03:50:44.126Z,56.59
2022-10-26T03:53:11.974Z,56.45
2022-10-26T03:55:39.501Z,56.55
2022-10-26T03:58:07.181Z,56.42
2022-10-26T04:00:36.084Z,56.55
2022-10-26T04:03:03.648Z,56.41
2022-10-26T04:05:31.217Z,56.29
2022-10-26T04:07:59.869Z,56.25
2022-10-26T04:10:28.057Z,56.26
2022-10-26T04:12:55.701Z,56.43
2022-10-26T04:15:23.401Z,56.65
2022-10-26T04:17:57.748Z,56.69
2022-10-26T04:20:25.561Z,56.50
2022-10-26T04:23:00.042Z,56.69
2022-10-26T04:25:30.152Z,56.70
2022-10-26T04:28:00.445Z,56.58
2022-10-26T04:30:27.956Z,56.68
2022-10-26T04:32:56.941Z,56.71
2022-10-26T04:35:24.516Z,56.64
2022-10-26T04:37:52.164Z,56.78
2022-10-26T04:40:19.718Z,56.63
2022-10-26T04:42:48.389Z,56.66
2022-10-26T04:45:16.658Z,56.40
2022-10-26T04:47:44.251Z,56.73
2022-10-26T04:50:13.822Z,56.70
2022-10-26T04:52:41.472Z,56.71
2022-10-26T04:55:09.386Z,56.68
2022-10-26T04:57:37.017Z,56.66
2022-10-26T05:00:05.124Z,56.82
2022-10-26T05:02:32.691Z,56.81
2022-10-26T05:05:00.317Z,56.74
2022-10-26T05:07:29.252Z,56.63
2022-10-26T05:09:56.798Z,56.74
2022-10-26T05:12:24.616Z,56.75
2022-10-26T05:14:52.173Z,56.82
2022-10-26T05:17:19.730Z,56.80
2022-10-26T05:19:52.821Z,56.71
2022-10-26T05:22:20.873Z,56.79
2022-10-26T05:24:49.769Z,56.76
2022-10-26T05:27:17.369Z,56.67
2022-10-26T05:29:44.916Z,56.88
2022-10-26T05:32:12.476Z,56.71
2022-10-26T05:34:41.531Z,56.80
2022-10-26T05:37:09.269Z,56.78
2022-10-26T05:39:36.876Z,56.99
2022-10-26T05:42:05.910Z,56.82
2022-10-26T05:44:33.480Z,56.76
2022-10-26T05:47:01.024Z,56.88
2022-10-26T05:49:28.562Z,56.81
2022-10-26T05:51:56.101Z,56.90
2022-10-26T05:54:24.465Z,56.85
2022-10-26T05:56:52.652Z,56.96
2022-10-26T05:59:22.253Z,56.91
2022-10-26T06:02:05.193Z,56.83
2022-10-26T06:04:38.505Z,56.74
2022-10-26T06:07:11.285Z,56.84
2022-10-26T06:09:39.513Z,56.90
2022-10-26T06:12:08.369Z,56.89
2022-10-26T06:14:38.031Z,56.85
2022-10-26T06:17:13.117Z,56.79
2022-10-26T06:19:47.537Z,56.78
2022-10-26T06:22:22.177Z,56.92
2022-10-26T06:24:52.919Z,57.00
2022-10-26T06:27:25.908Z,56.93
2022-10-26T06:29:57.281Z,56.86
2022-10-26T06:32:25.056Z,56.82
2022-10-26T06:34:53.809Z,56.90
2022-10-26T06:37:21.410Z,56.92
2022-10-26T06:39:52.607Z,56.98
2022-10-26T06:42:22.804Z,56.98
2022-10-26T06:44:50.922Z,57.06
2022-10-26T06:47:23.569Z,57.00
2022-10-26T06:49:57.794Z,57.01
2022-10-26T06:52:29.385Z,57.04
2022-10-26T06:54:57.484Z,56.99
2022-10-26T06:57:26.175Z,57.12
2022-10-26T06:59:55.813Z,57.12
2022-10-26T07:02:24.987Z,57.00
2022-10-26T07:04:52.614Z,57.01
2022-10-26T07:07:21.192Z,57.09
2022-10-26T07:09:48.742Z,57.13
2022-10-26T07:12:16.410Z,57.03
2022-10-26T07:14:43.934Z,57.03
2022-10-26T07:17:11.492Z,57.09
2022-10-26T07:19:40.664Z,57.01
2022-10-26T07:22:08.250Z,57.04
2022-10-26T07:24:35.884Z,57.07
2022-10-26T07:27:03.517Z,56.90
2022-10-26T07:29:31.091Z,57.17
2022-10-26T07:31:58.648Z,57.16
2022-10-26T07:34:26.252Z,57.11
2022-10-26T07:36:55.186Z,57.06
2022-10-26T07:39:22.731Z,57.17
2022-10-26T07:41:50.286Z,57.09
2022-10-26T07:44:17.837Z,57.18
2022-10-26T07:46:45.438Z,57.09
2022-10-26T07:49:15.216Z,57.17
2022-10-26T07:51:45.372Z,57.12
2022-10-26T07:54:14.293Z,57.05
2022-10-26T07:56:41.843Z,57.29
2022-10-26T07:59:09.483Z,57.17
2022-10-26T08:01:37.136Z,57.24
2022-10-26T08:04:04.784Z,57.23
2022-10-26T08:06:32.327Z,57.14
2022-10-26T08:08:59.877Z,57.17
2022-10-26T08:11:28.771Z,57.17
2022-10-26T08:13:56.351Z,57.20
2022-10-26T08:16:24.056Z,57.24
2022-10-26T08:18:51.638Z,57.17
2022-10-26T08:21:25.965Z,57.24
2022-10-26T08:24:03.235Z,57.20
2022-10-26T08:26:32.319Z,57.26
2022-10-26T08:28:59.876Z,57.08
2022-10-26T08:31:27.414Z,57.18
2022-10-26T08:33:54.977Z,57.23
2022-10-26T08:36:24.575Z,57.32
2022-10-26T08:38:52.398Z,57.32
2022-10-26T08:41:21.301Z,57.21
2022-10-26T08:43:52.048Z,57.30
2022-10-26T08:46:22.496Z,57.28
2022-10-26T08:48:51.891Z,57.34
2022-10-26T08:51:20.729Z,57.39
2022-10-26T08:53:50.222Z,57.25
2022-10-26T08:56:19.123Z,57.28
2022-10-26T08:58:50.010Z,57.29
2022-10-26T09:01:19.260Z,57.40
2022-10-26T09:03:46.854Z,57.35
2022-10-26T09:06:19.836Z,57.31
2022-10-26T09:08:53.287Z,57.27
2022-10-26T09:11:26.525Z,57.42
2022-10-26T09:14:00.830Z,57.39
2022-10-26T09:16:32.474Z,57.42
2022-10-26T09:19:08.795Z,57.11
2022-10-26T09:21:41.599Z,57.22
2022-10-26T09:24:12.529Z,57.32
2022-10-26T09:26:44.873Z,57.40
2022-10-26T09:29:13.688Z,57.49
2022-10-26T09:31:43.831Z,57.37
2022-10-26T09:34:17.675Z,57.27
2022-10-26T09:36:45.263Z,57.53
2022-10-26T09:39:15.249Z,57.58
2022-10-26T09:41:44.530Z,57.49
2022-10-26T09:44:13.712Z,57.45
2022-10-26T09:46:47.584Z,57.51
2022-10-26T09:49:15.159Z,57.55
2022-10-26T09:51:43.039Z,57.48
2022-10-26T09:54:14.651Z,57.57
2022-10-26T09:56:42.209Z,57.66
2022-10-26T09:59:10.657Z,57.51
2022-10-26T10:01:41.465Z,57.51
2022-10-26T10:04:20.064Z,57.46
2022-10-26T10:06:48.179Z,57.65
2022-10-26T10:09:16.535Z,57.43
2022-10-26T10:11:45.030Z,57.78
2022-10-26T10:14:17.617Z,57.56
2022-10-26T10:16:51.321Z,57.63
2022-10-26T10:19:23.865Z,57.61
2022-10-26T10:21:52.266Z,57.71
2022-10-26T10:24:29.901Z,57.59
2022-10-26T10:26:59.133Z,57.51
2022-10-26T10:29:27.291Z,57.58
2022-10-26T10:31:57.988Z,57.51
2022-10-26T10:34:26.995Z,57.50
2022-10-26T10:36:54.551Z,57.60
2022-10-26T10:39:36.749Z,57.56
2022-10-26T10:42:04.970Z,57.65
2022-10-26T10:44:32.521Z,57.66
2022-10-26T10:47:03.500Z,57.54
2022-10-26T10:49:32.548Z,57.78
2022-10-26T10:52:00.148Z,57.60
2022-10-26T10:54:30.257Z,57.68
2022-10-26T10:56:59.969Z,57.65
2022-10-26T10:59:35.720Z,57.61
2022-10-26T11:02:34.610Z,57.69
2022-10-26T11:05:20.863Z,57.67
2022-10-26T11:07:54.421Z,57.78
2022-10-26T11:10:22.384Z,57.83
2022-10-26T11:12:51.144Z,57.69
2022-10-26T11:15:19.933Z,57.57
2022-10-26T11:17:51.865Z,57.74
2022-10-26T11:20:22.369Z,57.61
2022-10-26T11:22:59.586Z,57.80
2022-10-26T11:25:29.115Z,57.69
2022-10-26T11:27:57.317Z,57.85
2022-10-26T11:30:26.392Z,57.78
2022-10-26T11:32:55.383Z,57.73
2022-10-26T11:35:27.157Z,57.67
2022-10-26T11:37:56.856Z,57.77
2022-10-26T11:40:28.565Z,57.69
2022-10-26T11:43:01.283Z,57.63
2022-10-26T11:45:29.833Z,57.77
2022-10-26T11:48:01.071Z,57.82
2022-10-26T11:50:31.516Z,57.82
2022-10-26T11:52:59.657Z,57.74
2022-10-26T11:55:27.213Z,57.80
2022-10-26T11:57:55.003Z,57.73
2022-10-26T12:00:23.067Z,58.11
2022-10-26T12:02:53.118Z,57.94
2022-10-26T12:05:22.635Z,57.96
2022-10-26T12:07:54.630Z,57.84
2022-10-26T12:10:29.280Z,57.98
2022-10-26T12:13:01.652Z,57.81
2022-10-26T12:15:40.282Z,57.93
2022-10-26T12:18:36.868Z,57.88
2022-10-26T12:21:09.781Z,57.93
2022-10-26T12:23:51.233Z,57.87
2022-10-26T12:26:39.224Z,57.84
2022-10-26T12:29:43.127Z,57.86
2022-10-26T12:32:50.704Z,57.83
2022-10-26T12:35:37.120Z,57.83
2022-10-26T12:38:55.600Z,57.74
2022-10-26T12:41:26.054Z,57.79
2022-10-26T12:44:04.793Z,57.83
2022-10-26T12:46:38.993Z,57.92
2022-10-26T12:49:40.434Z,57.85
2022-10-26T12:52:20.260Z,57.82
2022-10-26T12:54:54.790Z,57.86
2022-10-26T12:57:25.284Z,57.91
2022-10-26T12:59:54.223Z,58.02
2022-10-26T13:02:37.829Z,57.86
2022-10-26T13:05:55.837Z,57.97
2022-10-26T13:08:23.399Z,57.92
2022-10-26T13:11:02.229Z,58.11
2022-10-26T13:13:31.689Z,58.04
2022-10-26T13:15:59.548Z,58.06
2022-10-26T13:18:27.103Z,57.92
2022-10-26T13:20:59.225Z,58.10
2022-10-26T13:23:27.849Z,58.24
2022-10-26T13:26:06.310Z,58.28
2022-10-26T13:28:44.608Z,58.28
2022-10-26T13:31:13.853Z,58.19
2022-10-26T13:33:42.441Z,58.13
2022-10-26T13:36:16.678Z,58.39
2022-10-26T13:38:44.226Z,58.31
2022-10-26T13:41:19.026Z,57.94
2022-10-26T13:43:48.681Z,58.39
2022-10-26T13:46:26.104Z,58.03
2022-10-26T13:48:54.368Z,58.24
2022-10-26T13:51:23.644Z,58.10
2022-10-26T13:53:53.052Z,58.19
2022-10-26T13:56:27.128Z,58.49
2022-10-26T13:59:00.284Z,58.40
2022-10-26T14:01:28.558Z,58.28
2022-10-26T14:03:56.433Z,58.33
2022-10-26T14:06:27.315Z,58.33
2022-10-26T14:08:56.248Z,58.21
2022-10-26T14:11:25.644Z,57.84
2022-10-26T14:13:53.369Z,58.15
2022-10-26T14:16:22.569Z,58.11
2022-10-26T14:18:50.164Z,58.25
2022-10-26T14:21:18.736Z,58.13
2022-10-26T14:23:47.639Z,58.21
2022-10-26T14:26:20.481Z,58.24
2022-10-26T14:28:50.372Z,58.29
2022-10-26T14:31:24.109Z,58.28
2022-10-26T14:33:51.925Z,58.39
2022-10-26T14:36:20.583Z,58.16
2022-10-26T14:38:50.080Z,58.05
2022-10-26T14:41:18.245Z,58.46
2022-10-26T14:43:45.833Z,58.94
2022-10-26T14:46:15.224Z,58.87
2022-10-26T14:48:51.401Z,58.78
2022-10-26T14:51:20.304Z,58.38
2022-10-26T14:53:49.642Z,58.58
2022-10-26T14:56:21.160Z,58.39
2022-10-26T14:58:48.790Z,58.25
2022-10-26T15:01:36.257Z,58.19
2022-10-26T15:04:06.971Z,58.29
2022-10-26T15:09:43.127Z,58.08
2022-10-26T15:12:32.623Z,58.45
2022-10-26T15:15:19.345Z,58.79
2022-10-26T15:17:50.838Z,58.88
2022-10-26T15:20:21.022Z,58.54
2022-10-26T15:22:52.028Z,58.51
2022-10-26T15:25:21.571Z,58.27
2022-10-26T15:27:49.491Z,58.49
2022-10-26T15:30:22.866Z,58.33
2022-10-26T15:32:50.732Z,58.33
2022-10-26T15:35:40.894Z,58.27
2022-10-26T15:38:11.594Z,58.39
2022-10-26T15:40:42.589Z,59.04
2022-10-26T15:43:11.443Z,59.46
2022-10-26T15:45:47.761Z,59.70
2022-10-26T15:48:20.451Z,60.07
2022-10-26T15:50:49.453Z,60.21
2022-10-26T15:53:20.451Z,60.27
2022-10-26T15:55:48.569Z,60.74
2022-10-26T15:58:16.260Z,60.96
2022-10-26T16:00:43.998Z,61.29
2022-10-26T16:03:13.393Z,61.40
2022-10-26T16:05:41.695Z,61.83
2022-10-26T16:08:14.579Z,62.05
2022-10-26T16:10:44.599Z,62.02
2022-10-26T16:13:13.223Z,62.36
2022-10-26T16:15:40.820Z,62.58
2022-10-26T16:18:08.426Z,63.01
2022-10-26T16:20:36.027Z,63.33
2022-10-26T16:23:06.606Z,63.55
2022-10-26T16:25:36.481Z,63.65
2022-10-26T16:28:03.993Z,63.89
2022-10-26T16:30:31.692Z,63.92
2022-10-26T16:32:59.329Z,64.02
2022-10-26T16:35:27.030Z,64.44
2022-10-26T16:37:54.610Z,64.58
2022-10-26T16:40:22.448Z,64.38
2022-10-26T16:42:51.528Z,64.19
2022-10-26T16:45:19.342Z,64.60
2022-10-26T16:47:47.094Z,64.49
2022-10-26T16:50:14.858Z,64.36
2022-10-26T16:52:42.540Z,64.42
2022-10-26T16:55:10.472Z,64.64
2022-10-26T16:57:38.082Z,65.32
2022-10-26T17:00:08.312Z,65.03
2022-10-26T17:02:36.057Z,64.03
2022-10-26T17:05:07.174Z,64.01
2022-10-26T17:07:35.560Z,62.82
2022-10-26T17:10:03.148Z,62.11
2022-10-26T17:12:30.764Z,61.65
2022-10-26T17:15:00.425Z,60.99
2022-10-26T17:17:29.616Z,61.31
2022-10-26T17:19:57.690Z,60.88
2022-10-26T17:22:25.550Z,60.78
2022-10-26T17:24:53.108Z,60.12
2022-10-26T17:27:21.143Z,60.32
2022-10-26T17:29:48.874Z,60.08
2022-10-26T17:32:16.877Z,59.68
2022-10-26T17:34:46.251Z,59.59
2022-10-26T17:37:13.968Z,59.26
2022-10-26T17:39:41.585Z,59.92
2022-10-26T17:42:09.165Z,59.61
2022-10-26T17:44:39.296Z,59.61
2022-10-26T17:47:06.909Z,60.05
2022-10-26T17:49:36.233Z,60.42
2022-10-26T17:52:05.886Z,60.57
2022-10-26T17:54:33.518Z,60.72
2022-10-26T17:57:01.956Z,61.25
2022-10-26T17:59:29.686Z,60.96
2022-10-26T18:01:57.323Z,61.27
2022-10-26T18:04:25.228Z,61.30
2022-10-26T18:06:52.837Z,61.01
2022-10-26T18:09:21.856Z,61.50
2022-10-26T18:11:52.109Z,61.33
2022-10-26T18:14:22.547Z,61.35
2022-10-26T18:16:50.073Z,61.52
2022-10-26T18:19:17.649Z,61.70
2022-10-26T18:21:45.340Z,61.70
2022-10-26T18:24:13.146Z,61.89
2022-10-26T18:26:42.048Z,61.65
2022-10-26T18:29:10.815Z,61.66
2022-10-26T18:31:38.376Z,61.65
2022-10-26T18:34:06.643Z,61.83
2022-10-26T18:36:34.375Z,61.67
2022-10-26T18:39:02.042Z,61.64
2022-10-26T18:41:29.650Z,61.71
2022-10-26T18:43:59.794Z,61.65
2022-10-26T18:46:28.374Z,61.76
2022-10-26T18:48:56.173Z,61.73
2022-10-26T18:51:25.227Z,61.86
2022-10-26T18:53:52.776Z,61.77
2022-10-26T18:56:21.297Z,61.85
2022-10-26T18:58:49.779Z,61.92
2022-10-26T19:01:19.572Z,61.84
2022-10-26T19:03:47.470Z,61.86
2022-10-26T19:06:16.129Z,61.92
2022-10-26T19:08:43.860Z,61.86
2022-10-26T19:11:12.722Z,61.67
2022-10-26T19:13:40.403Z,61.85
2022-10-26T19:16:16.992Z,61.88
2022-10-26T19:18:50.778Z,61.88
2022-10-26T19:21:19.325Z,61.86
2022-10-26T19:23:48.325Z,61.85
2022-10-26T19:26:16.820Z,61.65
2022-10-26T19:28:44.400Z,61.89
2022-10-26T19:31:13.399Z,61.83
2022-10-26T19:33:40.932Z,61.79
2022-10-26T19:36:12.329Z,61.73
2022-10-26T19:38:39.980Z,61.93
2022-10-26T19:41:08.257Z,61.70
2022-10-26T19:43:36.198Z,61.75
2022-10-26T19:46:07.089Z,61.91
2022-10-26T19:48:34.637Z,61.79
2022-10-26T19:51:02.168Z,61.62
2022-10-26T19:53:31.065Z,61.89
2022-10-26T19:55:59.584Z,61.90
2022-10-26T19:58:27.797Z,61.62
2022-10-26T20:03:29.015Z,61.57
2022-10-26T20:05:56.729Z,61.77
2022-10-26T20:08:24.321Z,61.70
2022-10-26T20:10:54.000Z,61.79
2022-10-26T20:13:21.709Z,61.60
2022-10-26T20:15:49.832Z,61.76
2022-10-26T20:18:17.374Z,61.71
2022-10-26T20:20:44.908Z,61.84
2022-10-26T20:23:12.894Z,61.87
2022-10-26T20:25:44.612Z,61.80
2022-10-26T20:28:13.563Z,61.82
2022-10-26T20:30:41.968Z,61.73
2022-10-26T20:33:09.545Z,61.91
2022-10-26T20:35:37.447Z,61.74
2022-10-26T20:38:05.516Z,61.48
2022-10-26T20:40:33.913Z,61.26
2022-10-26T20:43:01.910Z,61.07
2022-10-26T20:45:31.707Z,61.17
2022-10-26T20:48:00.154Z,60.86
2022-10-26T20:50:29.041Z,61.18
2022-10-26T20:52:57.575Z,61.04
2022-10-26T20:55:29.394Z,60.90
2022-10-26T20:57:59.017Z,61.36
2022-10-26T21:00:27.154Z,60.87
2022-10-26T21:02:56.101Z,61.22
2022-10-26T21:05:25.362Z,60.89
2022-10-26T21:07:53.046Z,60.98
2022-10-26T21:10:20.661Z,60.74
2022-10-26T21:12:48.484Z,61.09
2022-10-26T21:15:16.336Z,61.10
2022-10-26T21:17:43.884Z,61.57
2022-10-26T21:20:13.033Z,61.20
2022-10-26T21:22:40.584Z,61.12
2022-10-26T21:25:08.709Z,61.42
2022-10-26T21:27:36.296Z,61.40
2022-10-26T21:30:04.120Z,61.27
2022-10-26T21:32:31.656Z,61.02
2022-10-26T21:35:00.524Z,61.41
2022-10-26T21:37:29.549Z,61.61
2022-10-26T21:39:57.409Z,60.73
2022-10-26T21:42:24.923Z,60.83
2022-10-26T21:44:52.463Z,60.71
2022-10-26T21:47:19.993Z,60.92
2022-10-26T21:49:47.604Z,60.82
2022-10-26T21:52:15.117Z,60.71
2022-10-26T21:54:44.235Z,60.79
2022-10-26T21:57:12.065Z,60.92
2022-10-26T21:59:39.738Z,60.88
2022-10-26T22:02:07.491Z,60.64
2022-10-26T22:04:35.190Z,60.85
2022-10-26T22:07:02.754Z,60.74
2022-10-26T22:09:30.289Z,60.72
2022-10-26T22:11:59.280Z,60.66
2022-10-26T22:14:26.849Z,60.70
2022-10-26T22:16:54.415Z,60.82
2022-10-26T22:19:22.018Z,60.71
2022-10-26T22:21:49.573Z,60.81
2022-10-26T22:24:17.105Z,60.93
2022-10-26T22:26:44.682Z,60.72
2022-10-26T22:29:13.553Z,60.98
2022-10-26T22:31:41.333Z,60.86
2022-10-26T22:34:09.640Z,61.05
2022-10-26T22:36:37.180Z,60.83
2022-10-26T22:39:04.871Z,60.62
2022-10-26T22:41:32.561Z,60.64
2022-10-26T22:44:00.104Z,60.80
2022-10-26T22:46:29.144Z,60.63
2022-10-26T22:48:57.242Z,60.67
2022-10-26T22:51:25.471Z,60.62
2022-10-26T22:53:53.678Z,60.70
2022-10-26T22:56:21.547Z,60.86
2022-10-26T22:58:49.275Z,60.79
2022-10-26T23:01:18.081Z,60.78
2022-10-26T23:03:47.138Z,60.92
2022-10-26T23:06:16.003Z,60.64
2022-10-26T23:08:43.572Z,60.66
2022-10-26T23:11:13.096Z,60.74
2022-10-26T23:13:40.650Z,60.78
2022-10-26T23:16:09.351Z,60.77
2022-10-26T23:18:36.860Z,61.12
2022-10-26T23:21:06.736Z,60.73
2022-10-26T23:23:34.555Z,60.64
2022-10-26T23:26:02.148Z,60.90
2022-10-26T23:28:29.709Z,60.86
2022-10-26T23:30:57.273Z,60.77
2022-10-26T23:33:24.813Z,61.01
2022-10-26T23:35:52.372Z,61.04
2022-10-26T23:38:21.319Z,60.71
2022-10-26T23:40:52.193Z,60.77
2022-10-26T23:43:19.822Z,60.75
2022-10-26T23:45:47.469Z,60.63
2022-10-26T23:48:15.100Z,60.84
2022-10-26T23:50:42.951Z,60.97
2022-10-26T23:53:10.508Z,60.66
2022-10-26T23:55:39.408Z,60.70
2022-10-26T23:58:06.962Z,60.70
